createdAt,value
2022-10-17T00:01:04.943Z,98492.31
2022-10-17T00:03:33.468Z,98494.03
2022-10-17T00:06:09.007Z,98490.75
2022-10-17T00:08:38.068Z,98495.66
2022-10-17T00:11:08.709Z,98493.44
2022-10-17T00:13:37.768Z,98495.50
2022-10-17T00:16:05.649Z,98498.34
2022-10-17T00:18:33.206Z,98495.19
2022-10-17T00:21:00.808Z,98494.34
2022-10-17T00:23:28.848Z,98501.75
2022-10-17T00:26:05.250Z,98502.34
2022-10-17T00:28:33.265Z,98496.38
2022-10-17T00:31:04.112Z,98498.59
2022-10-17T00:33:33.348Z,98483.75
2022-10-17T00:36:12.771Z,98485.41
2022-10-17T00:38:42.227Z,98486.94
2022-10-17T00:41:11.770Z,98487.69
2022-10-17T00:43:59.924Z,98483.34
2022-10-17T00:46:33.427Z,98479.03
2022-10-17T00:49:05.642Z,98484.09
2022-10-17T00:51:45.447Z,98477.97
2022-10-17T00:54:15.129Z,98490.50
2022-10-17T00:56:43.783Z,98478.84
2022-10-17T00:59:13.554Z,98485.34
2022-10-17T01:01:43.688Z,98488.66
2022-10-17T01:04:11.356Z,98489.78
2022-10-17T01:06:40.307Z,98489.22
2022-10-17T01:09:07.822Z,98484.69
2022-10-17T01:11:38.103Z,98485.38
2022-10-17T01:14:32.969Z,98488.22
2022-10-17T01:17:11.203Z,98491.28
2022-10-17T01:19:46.146Z,98493.06
2022-10-17T01:22:27.662Z,98495.91
2022-10-17T01:25:26.605Z,98496.72
2022-10-17T01:28:18.882Z,98495.00
2022-10-17T01:30:59.187Z,98490.13
2022-10-17T01:33:38.506Z,98493.63
2022-10-17T01:36:38.845Z,98495.22
2022-10-17T01:39:43.915Z,98494.53
2022-10-17T01:42:29.245Z,98494.03
2022-10-17T01:45:05.083Z,98493.94
2022-10-17T01:47:34.123Z,98498.88
2022-10-17T01:50:15.782Z,98501.41
2022-10-17T01:52:51.165Z,98493.31
2022-10-17T01:55:29.629Z,98506.41
2022-10-17T01:58:03.566Z,98505.75
2022-10-17T02:00:31.822Z,98499.94
2022-10-17T02:03:04.849Z,98499.25
2022-10-17T02:05:37.690Z,98492.94
2022-10-17T02:08:06.544Z,98503.75
2022-10-17T02:11:06.281Z,98496.28
2022-10-17T02:17:05.667Z,98497.19
2022-10-17T02:19:33.246Z,98494.41
2022-10-17T02:22:35.847Z,98496.78
2022-10-17T02:25:46.153Z,98492.22
2022-10-17T02:28:19.824Z,98477.88
2022-10-17T02:31:02.926Z,98477.75
2022-10-17T02:33:45.025Z,98473.91
2022-10-17T02:36:20.745Z,98474.88
2022-10-17T02:38:50.527Z,98472.19
2022-10-17T02:41:19.897Z,98481.03
2022-10-17T02:43:49.921Z,98476.41
2022-10-17T02:46:22.105Z,98482.59
2022-10-17T02:49:22.305Z,98480.13
2022-10-17T02:52:01.568Z,98485.50
2022-10-17T02:54:39.905Z,98478.50
2022-10-17T02:57:24.301Z,98478.63
2022-10-17T02:59:52.586Z,98478.84
2022-10-17T03:02:20.104Z,98479.66
2022-10-17T03:04:48.161Z,98489.19
2022-10-17T03:07:16.673Z,98493.97
2022-10-17T03:09:44.527Z,98496.50
2022-10-17T03:12:12.096Z,98501.06
2022-10-17T03:14:39.726Z,98498.34
2022-10-17T03:17:07.469Z,98494.84
2022-10-17T03:19:35.081Z,98492.38
2022-10-17T03:22:02.783Z,98496.94
2022-10-17T03:24:31.655Z,98492.00
2022-10-17T03:26:59.312Z,98492.66
2022-10-17T03:29:26.945Z,98490.19
2022-10-17T03:31:55.644Z,98493.72
2022-10-17T03:34:23.525Z,98498.19
2022-10-17T03:36:51.104Z,98500.53
2022-10-17T03:39:19.650Z,98497.88
2022-10-17T03:41:47.300Z,98494.38
2022-10-17T03:44:15.405Z,98497.31
2022-10-17T03:46:43.663Z,98495.84
2022-10-17T03:49:11.280Z,98496.63
2022-10-17T03:51:40.383Z,98502.34
2022-10-17T03:54:12.544Z,98498.66
2022-10-17T03:56:40.441Z,98509.94
2022-10-17T03:59:16.585Z,98504.13
2022-10-17T04:01:51.225Z,98502.94
2022-10-17T04:04:19.805Z,98507.97
2022-10-17T04:06:47.405Z,98508.66
2022-10-17T04:09:15.463Z,98506.84
2022-10-17T04:12:01.805Z,98512.41
2022-10-17T04:14:31.548Z,98510.31
2022-10-17T04:16:59.985Z,98517.91
2022-10-17T04:19:28.220Z,98514.41
2022-10-17T04:21:56.700Z,98512.06
2022-10-17T04:24:25.863Z,98521.41
2022-10-17T04:26:59.899Z,98526.75
2022-10-17T04:29:30.420Z,98528.75
2022-10-17T04:32:12.963Z,98531.44
2022-10-17T04:34:50.251Z,98531.91
2022-10-17T04:37:19.241Z,98529.69
2022-10-17T04:39:48.324Z,98528.84
2022-10-17T04:42:15.911Z,98531.53
2022-10-17T04:44:43.942Z,98536.88
2022-10-17T04:47:11.560Z,98530.72
2022-10-17T04:49:42.730Z,98539.56
2022-10-17T04:52:11.725Z,98539.69
2022-10-17T04:54:46.302Z,98539.13
2022-10-17T04:57:15.572Z,98545.75
2022-10-17T04:59:50.883Z,98550.16
2022-10-17T05:02:44.544Z,98548.25
2022-10-17T05:05:12.099Z,98553.84
2022-10-17T05:07:42.679Z,98554.16
2022-10-17T05:10:13.504Z,98559.75
2022-10-17T05:12:44.467Z,98562.53
2022-10-17T05:15:13.564Z,98567.69
2022-10-17T05:17:41.943Z,98568.75
2022-10-17T05:20:10.326Z,98564.75
2022-10-17T05:22:41.958Z,98567.78
2022-10-17T05:25:11.503Z,98569.53
2022-10-17T05:27:39.263Z,98567.97
2022-10-17T05:30:07.824Z,98576.81
2022-10-17T05:32:36.841Z,98572.75
2022-10-17T05:35:05.179Z,98577.75
2022-10-17T05:37:33.639Z,98578.09
2022-10-17T05:40:03.445Z,98580.78
2022-10-17T05:42:31.826Z,98587.53
2022-10-17T05:44:59.863Z,98580.91
2022-10-17T05:47:28.073Z,98586.41
2022-10-17T05:49:55.981Z,98594.94
2022-10-17T05:52:32.945Z,98594.84
2022-10-17T05:55:10.910Z,98595.66
2022-10-17T05:57:38.881Z,98608.78
2022-10-17T06:00:10.818Z,98607.69
2022-10-17T06:02:48.902Z,98605.06
2022-10-17T06:05:19.238Z,98608.28
2022-10-17T06:07:49.298Z,98609.84
2022-10-17T06:10:18.700Z,98612.25
2022-10-17T06:12:46.662Z,98617.28
2022-10-17T06:15:15.763Z,98615.78
2022-10-17T06:17:47.848Z,98614.78
2022-10-17T06:20:15.379Z,98621.31
2022-10-17T06:22:43.442Z,98624.75
2022-10-17T06:25:16.585Z,98622.00
2022-10-17T06:27:44.675Z,98629.38
2022-10-17T06:30:12.978Z,98619.59
2022-10-17T06:32:40.502Z,98624.03
2022-10-17T06:35:08.398Z,98634.69
2022-10-17T06:37:38.039Z,98621.66
2022-10-17T06:40:10.641Z,98631.94
2022-10-17T06:42:39.700Z,98637.09
2022-10-17T06:45:27.357Z,98634.66
2022-10-17T06:48:09.038Z,98632.97
2022-10-17T06:50:44.423Z,98635.75
2022-10-17T06:53:16.344Z,98639.94
2022-10-17T06:56:10.980Z,98640.03
2022-10-17T06:58:49.637Z,98633.78
2022-10-17T07:01:37.386Z,98632.81
2022-10-17T07:04:05.949Z,98636.13
2022-10-17T07:06:34.881Z,98639.44
2022-10-17T07:09:09.679Z,98637.81
2022-10-17T07:11:37.821Z,98639.72
2022-10-17T07:14:05.422Z,98637.63
2022-10-17T07:16:34.581Z,98636.78
2022-10-17T07:19:15.980Z,98640.13
2022-10-17T07:21:43.582Z,98644.41
2022-10-17T07:24:12.303Z,98653.16
2022-10-17T07:26:42.762Z,98645.44
2022-10-17T07:29:11.101Z,98651.84
2022-10-17T07:31:48.907Z,98634.81
2022-10-17T07:34:16.568Z,98646.44
2022-10-17T07:36:45.721Z,98639.41
2022-10-17T07:39:15.297Z,98645.94
2022-10-17T07:41:42.721Z,98656.53
2022-10-17T07:44:11.841Z,98654.84
2022-10-17T07:46:46.640Z,98661.78
2022-10-17T07:49:14.300Z,98672.13
2022-10-17T07:51:42.511Z,98676.34
2022-10-17T07:54:10.341Z,98666.19
2022-10-17T07:56:37.868Z,98668.66
2022-10-17T07:59:08.452Z,98676.63
2022-10-17T08:01:37.260Z,98674.50
2022-10-17T08:04:04.780Z,98683.47
2022-10-17T08:06:32.388Z,98680.03
2022-10-17T08:09:01.702Z,98688.16
2022-10-17T08:11:29.445Z,98684.38
2022-10-17T08:13:56.981Z,98676.81
2022-10-17T08:16:24.578Z,98678.69
2022-10-17T08:18:52.161Z,98674.03
2022-10-17T08:21:19.864Z,98675.97
2022-10-17T08:23:47.337Z,98672.97
2022-10-17T08:26:17.428Z,98672.97
2022-10-17T08:28:45.083Z,98671.31
2022-10-17T08:31:16.018Z,98672.16
2022-10-17T08:33:43.640Z,98676.50
2022-10-17T08:36:14.401Z,98668.66
2022-10-17T08:38:43.828Z,98670.25
2022-10-17T08:41:14.185Z,98665.69
2022-10-17T08:44:26.680Z,98670.84
2022-10-17T08:46:59.676Z,98668.13
2022-10-17T08:49:53.184Z,98669.75
2022-10-17T08:52:38.048Z,98668.88
2022-10-17T08:55:16.271Z,98673.94
2022-10-17T08:57:44.602Z,98668.00
2022-10-17T09:00:20.300Z,98665.56
2022-10-17T09:03:32.954Z,98665.78
2022-10-17T09:06:35.469Z,98664.19
2022-10-17T09:09:02.931Z,98666.41
2022-10-17T09:11:42.288Z,98674.81
2022-10-17T09:14:26.060Z,98675.59
2022-10-17T09:17:08.562Z,98668.06
2022-10-17T09:19:40.601Z,98669.94
2022-10-17T09:22:19.663Z,98672.84
2022-10-17T09:24:57.633Z,98662.38
2022-10-17T09:27:38.792Z,98672.56
2022-10-17T09:30:44.048Z,98669.56
2022-10-17T09:33:35.511Z,98673.63
2022-10-17T09:36:17.760Z,98663.22
2022-10-17T09:38:49.831Z,98676.03
2022-10-17T09:41:43.766Z,98683.91
2022-10-17T09:44:33.632Z,98677.47
2022-10-17T09:47:10.168Z,98678.56
2022-10-17T09:49:43.232Z,98678.06
2022-10-17T09:52:37.106Z,98671.84
2022-10-17T09:55:15.881Z,98680.81
2022-10-17T09:57:57.174Z,98678.13
2022-10-17T10:00:39.200Z,98685.19
2022-10-17T10:03:26.451Z,98680.31
2022-10-17T10:06:18.300Z,98680.06
2022-10-17T10:09:22.765Z,98670.03
2022-10-17T10:11:54.251Z,98679.75
2022-10-17T10:14:35.960Z,98678.09
2022-10-17T10:17:07.049Z,98681.88
2022-10-17T10:19:37.320Z,98679.72
2022-10-17T10:22:14.425Z,98672.88
2022-10-17T10:24:42.236Z,98669.56
2022-10-17T10:27:17.731Z,98672.50
2022-10-17T10:29:52.968Z,98666.47
2022-10-17T10:32:26.406Z,98668.13
2022-10-17T10:35:04.858Z,98669.53
2022-10-17T10:37:43.754Z,98675.44
2022-10-17T10:40:18.077Z,98674.28
2022-10-17T10:43:01.292Z,98677.47
2022-10-17T10:45:53.607Z,98663.25
2022-10-17T10:48:33.992Z,98664.47
2022-10-17T10:51:19.736Z,98665.09
2022-10-17T10:53:59.603Z,98673.03
2022-10-17T10:56:44.240Z,98655.03
2022-10-17T10:59:29.810Z,98648.69
2022-10-17T11:02:23.585Z,98650.25
2022-10-17T11:05:18.880Z,98650.66
2022-10-17T11:08:29.350Z,98648.97
2022-10-17T11:11:24.080Z,98653.41
2022-10-17T11:13:58.950Z,98665.19
2022-10-17T11:16:35.890Z,98656.94
2022-10-17T11:19:07.558Z,98661.03
2022-10-17T11:22:19.428Z,98663.47
2022-10-17T11:24:57.202Z,98671.59
2022-10-17T11:31:41.847Z,98667.84
2022-10-17T11:34:22.006Z,98661.59
2022-10-17T11:36:53.312Z,98659.66
2022-10-17T11:39:27.737Z,98654.66
2022-10-17T11:42:07.387Z,98663.88
2022-10-17T11:44:37.628Z,98661.38
2022-10-17T11:47:34.288Z,98664.00
2022-10-17T11:53:27.535Z,98658.25
2022-10-17T11:55:58.367Z,98642.22
2022-10-17T11:58:41.713Z,98643.91
2022-10-17T12:01:38.079Z,98643.03
2022-10-17T12:04:41.335Z,98640.53
2022-10-17T12:07:27.884Z,98621.78
2022-10-17T12:10:13.716Z,98627.56
2022-10-17T12:12:41.218Z,98632.03
2022-10-17T12:15:20.891Z,98617.41
2022-10-17T12:18:03.192Z,98610.47
2022-10-17T12:20:36.671Z,98605.78
2022-10-17T12:23:04.185Z,98600.53
2022-10-17T12:25:34.470Z,98608.22
2022-10-17T12:28:29.478Z,98603.84
2022-10-17T12:30:56.943Z,98610.81
2022-10-17T12:33:30.105Z,98607.44
2022-10-17T12:36:22.241Z,98609.16
2022-10-17T12:39:14.805Z,98608.69
2022-10-17T12:41:43.294Z,98609.31
2022-10-17T12:44:13.897Z,98600.78
2022-10-17T12:47:06.022Z,98587.09
2022-10-17T12:49:48.066Z,98591.72
2022-10-17T12:52:22.073Z,98591.84
2022-10-17T12:55:11.457Z,98592.81
2022-10-17T12:58:16.582Z,98582.03
2022-10-17T13:01:19.053Z,98579.72
2022-10-17T13:03:46.506Z,98583.84
2022-10-17T13:06:24.952Z,98585.47
2022-10-17T13:09:35.824Z,98589.50
2022-10-17T13:12:11.197Z,98589.47
2022-10-17T13:14:42.820Z,98587.84
2022-10-17T13:17:26.344Z,98584.38
2022-10-17T13:19:55.016Z,98586.28
2022-10-17T13:22:26.286Z,98591.19
2022-10-17T13:25:08.135Z,98602.28
2022-10-17T13:27:37.625Z,98591.69
2022-10-17T13:30:32.144Z,98599.56
2022-10-17T13:33:01.431Z,98606.63
2022-10-17T13:36:01.918Z,98597.69
2022-10-17T13:38:24.982Z,98602.03
2022-10-17T13:40:58.031Z,98593.91
2022-10-17T13:43:31.286Z,98597.19
2022-10-17T13:46:25.451Z,98605.00
2022-10-17T13:48:53.404Z,98599.34
2022-10-17T13:51:20.886Z,98596.09
2022-10-17T13:53:48.523Z,98593.13
2022-10-17T13:56:29.610Z,98600.72
2022-10-17T13:59:01.645Z,98597.50
2022-10-17T14:01:30.798Z,98602.03
2022-10-17T14:04:20.158Z,98596.63
2022-10-17T14:06:49.621Z,98594.19
2022-10-17T14:09:28.534Z,98603.38
2022-10-17T14:12:08.694Z,98609.06
2022-10-17T14:14:58.000Z,98606.06
2022-10-17T14:17:29.205Z,98606.09
2022-10-17T14:23:20.862Z,98601.47
2022-10-17T14:25:41.512Z,98609.56
2022-10-17T14:28:16.016Z,98610.38
2022-10-17T14:30:57.310Z,98619.56
2022-10-17T14:33:31.548Z,98613.63
2022-10-17T14:36:00.665Z,98614.69
2022-10-17T14:38:30.072Z,98609.53
2022-10-17T14:44:14.714Z,98612.44
2022-10-17T14:46:50.286Z,98608.34
2022-10-17T14:49:25.920Z,98603.16
2022-10-17T14:52:18.848Z,98604.72
2022-10-17T14:54:50.522Z,98604.16
2022-10-17T14:57:17.880Z,98604.97
2022-10-17T14:59:54.157Z,98605.16
2022-10-17T15:02:23.501Z,98610.47
2022-10-17T15:04:51.275Z,98613.38
2022-10-17T15:07:19.054Z,98617.06
2022-10-17T15:09:48.788Z,98615.16
2022-10-17T15:12:20.713Z,98617.28
2022-10-17T15:14:48.831Z,98616.38
2022-10-17T15:17:24.394Z,98612.25
2022-10-17T15:19:52.132Z,98613.06
2022-10-17T15:22:19.649Z,98615.69
2022-10-17T15:24:47.789Z,98621.81
2022-10-17T15:27:20.529Z,98618.78
2022-10-17T15:29:48.700Z,98616.94
2022-10-17T15:32:16.395Z,98626.09
2022-10-17T15:34:44.087Z,98632.81
2022-10-17T15:37:22.196Z,98634.19
2022-10-17T15:39:54.971Z,98639.31
2022-10-17T15:42:26.772Z,98640.72
2022-10-17T15:44:54.580Z,98648.00
2022-10-17T15:47:34.421Z,98660.91
2022-10-17T15:50:02.555Z,98657.63
2022-10-17T15:52:29.960Z,98663.50
2022-10-17T15:54:59.723Z,98663.69
2022-10-17T15:57:35.689Z,98669.34
2022-10-17T16:00:05.904Z,98671.97
2022-10-17T16:02:36.861Z,98667.38
2022-10-17T16:05:15.003Z,98663.34
2022-10-17T16:07:46.280Z,98642.78
2022-10-17T16:10:14.910Z,98642.72
2022-10-17T16:12:42.766Z,98659.97
2022-10-17T16:15:25.655Z,98653.50
2022-10-17T16:17:55.893Z,98662.09
2022-10-17T16:20:25.091Z,98659.09
2022-10-17T16:22:59.819Z,98663.69
2022-10-17T16:25:29.321Z,98675.41
2022-10-17T16:27:59.426Z,98671.31
2022-10-17T16:30:30.856Z,98674.81
2022-10-17T16:32:58.412Z,98676.41
2022-10-17T16:35:34.747Z,98675.72
2022-10-17T16:38:06.852Z,98668.13
2022-10-17T16:40:34.560Z,98667.06
2022-10-17T16:43:02.246Z,98669.09
2022-10-17T16:45:30.491Z,98671.41
2022-10-17T16:47:58.012Z,98675.72
2022-10-17T16:50:25.492Z,98675.97
2022-10-17T16:52:52.923Z,98678.28
2022-10-17T16:55:20.671Z,98656.41
2022-10-17T16:57:49.340Z,98665.81
2022-10-17T17:00:18.182Z,98645.00
2022-10-17T17:02:47.960Z,98648.44
2022-10-17T17:05:15.913Z,98655.44
2022-10-17T17:07:43.412Z,98658.31
2022-10-17T17:10:10.980Z,98660.44
2022-10-17T17:12:38.411Z,98663.22
2022-10-17T17:15:06.123Z,98658.56
2022-10-17T17:17:48.836Z,98665.50
2022-10-17T17:20:18.836Z,98670.47
2022-10-17T17:22:46.361Z,98661.19
2022-10-17T17:25:13.841Z,98662.41
2022-10-17T17:27:41.390Z,98666.47
2022-10-17T17:30:09.245Z,98666.88
2022-10-17T17:32:36.821Z,98672.41
2022-10-17T17:35:04.599Z,98668.81
2022-10-17T17:37:32.309Z,98673.66
2022-10-17T17:39:59.980Z,98670.16
2022-10-17T17:42:27.621Z,98671.78
2022-10-17T17:44:55.051Z,98669.66
2022-10-17T17:47:22.484Z,98672.84
2022-10-17T17:49:50.002Z,98672.00
2022-10-17T17:52:17.391Z,98668.28
2022-10-17T17:54:44.970Z,98669.66
2022-10-17T17:57:12.921Z,98666.53
2022-10-17T17:59:41.574Z,98666.88
2022-10-17T18:02:11.254Z,98663.13
2022-10-17T18:04:38.887Z,98663.41
2022-10-17T18:07:06.406Z,98661.63
2022-10-17T18:09:33.881Z,98663.50
2022-10-17T18:12:01.535Z,98660.00
2022-10-17T18:14:28.971Z,98662.44
2022-10-17T18:16:56.461Z,98649.53
2022-10-17T18:19:24.047Z,98659.31
2022-10-17T18:21:51.530Z,98658.50
2022-10-17T18:24:19.481Z,98663.41
2022-10-17T18:26:47.319Z,98659.63
2022-10-17T18:29:14.971Z,98668.44
2022-10-17T18:31:43.090Z,98661.50
2022-10-17T18:34:10.736Z,98667.94
2022-10-17T18:36:38.320Z,98653.44
2022-10-17T18:39:06.226Z,98657.25
2022-10-17T18:41:34.084Z,98657.34
2022-10-17T18:44:03.152Z,98651.16
2022-10-17T18:46:36.082Z,98657.91
2022-10-17T18:49:04.036Z,98659.06
2022-10-17T18:51:31.475Z,98652.28
2022-10-17T18:53:59.080Z,98656.09
2022-10-17T18:56:27.022Z,98655.28
2022-10-17T18:58:55.156Z,98658.47
2022-10-17T19:01:25.167Z,98661.47
2022-10-17T19:03:55.679Z,98663.13
2022-10-17T19:06:27.884Z,98670.63
2022-10-17T19:08:55.417Z,98659.06
2022-10-17T19:11:25.367Z,98668.19
2022-10-17T19:13:53.531Z,98663.28
2022-10-17T19:16:27.732Z,98666.31
2022-10-17T19:19:05.457Z,98660.06
2022-10-17T19:21:34.103Z,98667.06
2022-10-17T19:24:05.586Z,98663.06
2022-10-17T19:26:36.256Z,98665.97
2022-10-17T19:29:05.109Z,98668.59
2022-10-17T19:31:34.340Z,98656.16
2022-10-17T19:34:01.907Z,98654.25
2022-10-17T19:36:33.623Z,98651.25
2022-10-17T19:39:04.771Z,98657.44
2022-10-17T19:41:33.206Z,98671.13
2022-10-17T19:44:01.048Z,98666.63
2022-10-17T19:46:29.707Z,98661.00
2022-10-17T19:48:57.970Z,98658.31
2022-10-17T19:51:26.544Z,98664.13
2022-10-17T19:53:55.749Z,98662.50
2022-10-17T19:56:25.155Z,98664.41
2022-10-17T19:58:55.653Z,98674.00
2022-10-17T20:01:29.191Z,98682.66
2022-10-17T20:03:57.184Z,98685.06
2022-10-17T20:06:24.655Z,98694.16
2022-10-17T20:08:52.407Z,98683.56
2022-10-17T20:11:25.309Z,98687.78
2022-10-17T20:13:54.345Z,98684.56
2022-10-17T20:16:25.262Z,98704.41
2022-10-17T20:18:54.826Z,98700.31
2022-10-17T20:21:28.711Z,98703.00
2022-10-17T20:23:56.104Z,98708.88
2022-10-17T20:26:37.025Z,98711.91
2022-10-17T20:29:12.301Z,98715.91
2022-10-17T20:31:41.375Z,98709.28
2022-10-17T20:34:12.965Z,98712.97
2022-10-17T20:36:41.004Z,98714.53
2022-10-17T20:39:10.815Z,98720.09
2022-10-17T20:41:38.375Z,98726.69
2022-10-17T20:44:07.062Z,98724.25
2022-10-17T20:46:37.662Z,98724.16
2022-10-17T20:49:08.687Z,98737.03
2022-10-17T20:51:36.304Z,98730.50
2022-10-17T20:54:04.429Z,98730.72
2022-10-17T20:56:33.733Z,98731.97
2022-10-17T20:59:07.351Z,98735.13
2022-10-17T21:01:36.163Z,98741.81
2022-10-17T21:04:33.342Z,98745.72
2022-10-17T21:06:52.269Z,98737.78
2022-10-17T21:09:20.346Z,98739.56
2022-10-17T21:11:51.216Z,98733.00
2022-10-17T21:14:19.014Z,98732.91
2022-10-17T21:16:46.666Z,98733.25
2022-10-17T21:19:15.585Z,98730.81
2022-10-17T21:21:45.907Z,98725.69
2022-10-17T21:24:17.404Z,98724.28
2022-10-17T21:26:46.052Z,98722.06
2022-10-17T21:29:14.189Z,98719.81
2022-10-17T21:31:43.576Z,98716.78
2022-10-17T21:34:17.827Z,98722.88
2022-10-17T21:36:45.835Z,98716.97
2022-10-17T21:39:14.646Z,98723.00
2022-10-17T21:41:43.324Z,98715.53
2022-10-17T21:44:16.585Z,98715.34
2022-10-17T21:46:44.348Z,98714.41
2022-10-17T21:49:13.894Z,98715.16
2022-10-17T21:51:41.986Z,98717.59
2022-10-17T21:54:09.376Z,98721.66
2022-10-17T21:56:37.576Z,98714.66
2022-10-17T21:59:05.526Z,98712.69
2022-10-17T22:01:39.052Z,98715.16
2022-10-17T22:04:10.165Z,98722.16
2022-10-17T22:06:40.537Z,98730.81
2022-10-17T22:09:17.936Z,98727.78
2022-10-17T22:11:51.282Z,98718.66
2022-10-17T22:14:20.417Z,98721.09
2022-10-17T22:16:48.676Z,98723.78
2022-10-17T22:19:22.833Z,98728.13
2022-10-17T22:21:50.942Z,98728.94
2022-10-17T22:26:48.845Z,98726.56
2022-10-17T22:29:16.416Z,98728.66
2022-10-17T22:31:44.425Z,98741.06
2022-10-17T22:34:14.205Z,98732.69
2022-10-17T22:36:42.697Z,98732.91
2022-10-17T22:39:10.305Z,98729.63
2022-10-17T22:41:37.806Z,98737.69
2022-10-17T22:44:05.903Z,98737.69
2022-10-17T22:46:33.825Z,98741.44
2022-10-17T22:49:01.370Z,98743.78
2022-10-17T22:51:28.745Z,98741.09
2022-10-17T22:53:56.386Z,98743.19
2022-10-17T22:56:24.063Z,98744.00
2022-10-17T22:58:52.146Z,98739.47
2022-10-17T23:01:22.587Z,98741.31
2022-10-17T23:03:51.047Z,98738.88
2022-10-17T23:06:18.751Z,98740.28
2022-10-17T23:08:46.756Z,98741.31
2022-10-17T23:11:14.339Z,98735.72
2022-10-17T23:13:41.907Z,98744.13
2022-10-17T23:16:09.715Z,98746.16
2022-10-17T23:18:38.347Z,98739.25
2022-10-17T23:21:06.224Z,98744.06
2022-10-17T23:23:34.069Z,98739.50
2022-10-17T23:26:10.320Z,98743.81
2022-10-17T23:28:38.512Z,98736.81
2022-10-17T23:31:11.305Z,98740.31
2022-10-17T23:33:41.303Z,98730.38
2022-10-17T23:36:10.813Z,98729.22
2022-10-17T23:38:40.023Z,98733.19
2022-10-17T23:41:08.075Z,98732.38
2022-10-17T23:43:35.773Z,98733.44
2022-10-17T23:46:04.792Z,98734.50
2022-10-17T23:48:32.635Z,98731.19
2022-10-17T23:51:00.226Z,98732.25
2022-10-17T23:53:27.712Z,98723.28
2022-10-17T23:55:55.157Z,98724.56
2022-10-17T23:58:22.725Z,98722.00
